Data for 08/07/2006

Time Sea-Level Adjusted Pressure Absolute Pressure Temperature Relative Humidity Dew Point   
(mb) (inHg) (mb) (inHg) (C) (F) (%) (C) (F)
00:05 1020 30.12 849 25.07 20.9 69.6 35 4.9 40.9
00:10 1020 30.12 849 25.07 20.8 69.4 35 4.9 40.8
00:15 1020 30.12 849 25.07 20.6 69.1 37 5.5 42
00:20 1020 30.12 849 25.07 19.9 67.7 40 6 42.8
00:25 1020 30.12 849 25.07 19.5 67.1 39 5.3 41.6
00:30 1020 30.12 849 25.07 19.3 66.8 39 5 41
00:35 1020 30.12 849 25.07 19.6 67.3 41 6.1 42.9
00:40 1020 30.12 849 25.07 19.9 67.8 36 4.4 40
00:45 1020 30.12 849 25.07 19.6 67.3 37 4.8 40.6
00:50 1020 30.12 849 25.07 19.2 66.5 39 4.9 40.7
00:55 1020 30.12 849 25.07 19 66.1 38 4.4 39.9
01:00 1020 30.12 849 25.07 19 66.1 38 4.6 40.3
01:05 1020 30.12 849 25.07 19.2 66.6 37 4.4 39.9
01:10 1020 30.12 849 25.07 19.5 67.1 37 4.5 40
01:15 1020 30.12 849 25.07 19.7 67.4 36 4.5 40.1
01:20 1020 30.12 849 25.07 19.6 67.3 37 4.8 40.7
01:25 1020 30.12 849 25.07 19.5 67 38 5 40.9
01:30 1020 30.12 849 25.07 19.3 66.8 39 5.1 41.2
01:35 1019 30.09 849 25.07 19.1 66.4 40 5.2 41.4
01:40 1019 30.09 849 25.07 18.9 66 44 6.6 43.8
01:45 1019 30.09 849 25.07 18.9 65.9 39 4.9 40.9
01:50 1019 30.09 849 25.07 18.8 65.9 39 4.9 40.8
01:55 1019 30.09 849 25.07 18.8 65.9 39 4.7 40.5
02:00 1020 30.12 849 25.07 18.8 65.8 39 4.8 40.6
02:05 1020 30.12 849 25.07 18.6 65.4 40 4.8 40.6
02:10 1020 30.12 849 25.07 18.5 65.2 41 5 41
02:15 1019 30.09 849 25.07 18.6 65.5 39 4.7 40.5
02:20 1020 30.12 849 25.07 19 66.1 39 4.9 40.8
02:25 1019 30.09 849 25.07 18.9 65.9 40 5 41
02:30 1019 30.09 849 25.07 19.1 66.3 39 4.9 40.9
02:35 1019 30.09 849 25.07 19.2 66.5 39 5 41
02:40 1019 30.09 849 25.07 19.2 66.5 39 5.1 41.2
02:45 1019 30.09 849 25.07 19 66.2 41 5.6 42
02:50 1019 30.09 849 25.07 19 66.2 41 5.8 42.4
02:55 1019 30.09 849 25.07 19 66.1 40 5.2 41.3
03:00 1020 30.12 849 25.07 18.8 65.8 41 5.3 41.5
03:05 1020 30.12 849 25.07 18.7 65.6 40 5 41
03:10 1020 30.12 849 25.07 18.2 64.7 42 5.3 41.6
03:15 1020 30.12 849 25.07 17.8 64 43 5 41
03:20 1020 30.12 849 25.07 17.7 63.8 42 4.9 40.8
03:25 1020 30.12 849 25.07 17.7 63.8 42 4.8 40.6
03:30 1020 30.12 849 25.07 17.8 64 43 5.1 41.1
03:35 1020 30.12 849 25.07 17.6 63.6 42 4.8 40.6
03:40 1020 30.12 849 25.07 17.5 63.5 42 4.5 40.2
03:45 1020 30.12 849 25.07 17.6 63.7 40 4 39.3
03:50 1020 30.12 849 25.07 17.7 63.8 41 4.4 39.9
03:55 1020 30.12 849 25.07 17.4 63.3 44 5 41
04:00 1020 30.12 849 25.07 17.3 63.2 44 4.9 40.8
04:05 1020 30.12 849 25.07 17.2 62.9 44 4.9 40.8
04:10 1020 30.12 849 25.07 17 62.6 44 4.9 40.8
04:15 1020 30.12 849 25.07 16.8 62.2 44 4.5 40
04:20 1020 30.12 849 25.07 16.7 62 43 4.3 39.7
04:25 1020 30.12 849 25.07 16.9 62.4 44 4.6 40.3
04:30 1020 30.12 849 25.07 16.7 62 45 4.9 40.9
04:35 1020 30.12 849 25.07 16.7 62 46 5 41
04:40 1020 30.12 849 25.07 16.8 62.2 45 5 41
04:45 1020 30.12 849 25.07 16.9 62.4 45 5.1 41.2
04:50 1020 30.12 849 25.07 16.8 62.3 45 5.1 41.1
04:55 1020 30.12 849 25.07 17 62.5 45 5 41
05:00 1020 30.12 849 25.07 17.3 63.1 44 4.9 40.9
05:05 1020 30.12 849 25.07 17.6 63.6 44 5.2 41.3
05:10 1020 30.12 849 25.07 17.6 63.6 44 5.2 41.3
05:15 1020 30.12 849 25.07 17.5 63.4 44 5.2 41.4
05:20 1020 30.12 849 25.07 17.4 63.2 45 5.3 41.6
05:25 1020 30.12 849 25.07 17.2 62.9 45 5.2 41.4
05:30 1020 30.12 849 25.07 16.9 62.4 46 5.2 41.4
05:35 1020 30.12 850 25.1 16.6 61.9 46 5.2 41.3
05:40 1020 30.12 850 25.1 16.3 61.3 46 4.9 40.8
05:45 1020 30.12 850 25.1 16.1 60.9 47 4.8 40.6
05:50 1020 30.12 850 25.1 16.3 61.4 45 4.6 40.2
05:55 1020 30.12 850 25.1 16.4 61.6 46 4.7 40.5
06:00 1020 30.12 850 25.1 16.4 61.6 46 4.9 40.7
06:05 1020 30.12 850 25.1 16.4 61.6 47 5 41.1
06:10 1020 30.12 850 25.1 16.1 61.1 48 5.1 41.2
06:15 1020 30.12 850 25.1 16.1 60.9 48 5.1 41.2
06:20 1020 30.12 850 25.1 16.2 61.1 48 5.2 41.3
06:25 1020 30.12 850 25.1 16.1 60.9 48 5.1 41.2
06:30 1020 30.12 850 25.1 16.1 60.9 50 5.6 42.1
06:35 1021 30.15 850 25.1 16 60.7 48 5 41
06:40 1021 30.15 850 25.1 15.7 60.3 48 4.8 40.6
06:45 1021 30.15 850 25.1 15.8 60.4 47 4.7 40.5
06:50 1021 30.15 850 25.1 15.8 60.4 48 4.8 40.6
06:55 1021 30.15 850 25.1 15.7 60.3 46 4.4 39.9
07:00 1021 30.15 850 25.1 15.9 60.5 46 4.4 39.9
07:05 1021 30.15 850 25.1 15.9 60.7 46 4.3 39.8
07:10 1021 30.15 850 25.1 16.2 61.1 50 5.9 42.6
07:15 1021 30.15 850 25.1 16.5 61.8 44 4.4 40
07:20 1021 30.15 850 25.1 16.8 62.2 45 4.7 40.5
07:25 1021 30.15 850 25.1 16.8 62.2 48 5.9 42.6
07:30 1021 30.15 850 25.1 17 62.6 45 5.1 41.3
07:35 1021 30.15 850 25.1 17.1 62.7 45 5.1 41.2
07:40 1021 30.15 850 25.1 17.4 63.2 46 5.8 42.5
07:45 1021 30.15 850 25.1 17.3 63.2 46 5.8 42.4
07:50 1021 30.15 850 25.1 17.4 63.3 47 6 42.8
07:55 1021 30.15 850 25.1 17.6 63.7 45 5.6 42.1
08:00 1021 30.15 850 25.1 17.8 64 45 5.6 42.1
08:05 1021 30.15 850 25.1 18 64.4 44 5.8 42.4
08:10 1021 30.15 850 25.1 18.3 65 44 5.8 42.5
08:15 1021 30.15 850 25.1 18.8 65.8 42 5.7 42.3
08:20 1021 30.15 850 25.1 19 66.2 43 6.3 43.3
08:25 1021 30.15 850 25.1 19.3 66.7 41 6 42.8
08:30 1021 30.15 850 25.1 19.7 67.4 41 6.1 43.1
08:35 1021 30.15 850 25.1 20.1 68.1 41 6.5 43.7
08:40 1021 30.15 850 25.1 20.5 68.9 38 6 42.8
08:45 1021 30.15 850 25.1 20.7 69.2 39 6.3 43.4
08:50 1021 30.15 850 25.1 21.1 69.9 35 5.1 41.1
08:55 1021 30.15 850 25.1 21.6 70.9 30 3.4 38
09:00 1021 30.15 850 25.1 22 71.6 31 4.1 39.4
09:05 1021 30.15 850 25.1 22.6 72.7 28 3.3 38
09:10 1021 30.15 850 25.1 23.3 74 30 5 41.1
09:15 1021 30.15 850 25.1 23.2 73.7 33 6.2 43.2
09:20 1021 30.15 850 25.1 23.2 73.7 32 5.8 42.5
09:25 1021 30.15 850 25.1 23.3 73.9 35 7.2 44.9
09:30 1021 30.15 850 25.1 23.5 74.3 34 6.8 44.2
09:35 1021 30.15 850 25.1 24.5 76.1 30 6.2 43.1
09:40 1021 30.15 850 25.1 25.3 77.5 29 6.3 43.4
09:45 1021 30.15 850 25.1 25.5 77.9 30 7 44.6
09:50 1021 30.15 850 25.1 25.8 78.4 29 6.9 44.3
09:55 1021 30.15 850 25.1 26 78.8 29 7 44.6
10:00 1021 30.15 850 25.1 26.3 79.3 29 7.1 44.7
10:05 1021 30.15 850 25.1 26.6 79.8 29 7.2 45
10:10 1021 30.15 850 25.1 26.4 79.6 30 7.6 45.7
10:15 1021 30.15 850 25.1 26.8 80.2 29 7.5 45.5
10:20 1021 30.15 850 25.1 26.7 80.1 28 7.2 44.9
10:25 1021 30.15 850 25.1 26.6 79.9 28 6.9 44.5
10:30 1021 30.15 850 25.1 25.4 77.8 29 6.6 43.8
10:35 1021 30.15 850 25.1 26.1 79.1 28 6.6 43.9
10:40 1021 30.15 850 25.1 27.2 80.9 27 6.9 44.5
10:45 1021 30.15 850 25.1 27.6 81.6 26 6.8 44.3
10:50 1021 30.15 850 25.1 27.3 81.1 27 7.1 44.7
10:55 1021 30.15 850 25.1 27.3 81.2 26 6.6 43.9
11:00 1021 30.15 850 25.1 27.5 81.6 27 7.1 44.7
11:05 1021 30.15 850 25.1 26.8 80.3 27 6.5 43.7
11:10 1021 30.15 850 25.1 27.1 80.7 26 6.3 43.4
11:15 1021 30.15 850 25.1 27.3 81.2 26 6.4 43.6
11:20 1021 30.15 850 25.1 27.7 81.9 25 6.3 43.4
11:25 1021 30.15 850 25.1 28.2 82.8 24 6.1 42.9
11:30 1021 30.15 850 25.1 28.2 82.8 24 6.2 43.2
11:35 1021 30.15 850 25.1 28.8 83.8 25 6.9 44.4
11:40 1021 30.15 850 25.1 28.8 83.9 24 6.8 44.2
11:45 1020 30.12 850 25.1 28.8 83.8 23 6.2 43.2
11:50 1020 30.12 850 25.1 28.8 83.9 23 6.1 43.1
11:55 1020 30.12 850 25.1 29.2 84.5 23 6.3 43.4
12:00 1020 30.12 850 25.1 29.8 85.6 22 6 42.9
12:05 1020 30.12 850 25.1 30.6 87.1 21 6.3 43.4
12:10 1020 30.12 849 25.07 31 87.8 21 6.3 43.3
12:15 1020 30.12 849 25.07 31.2 88.1 20 6 42.9
12:20 1020 30.12 849 25.07 31.6 88.8 20 6 42.8
12:25 1020 30.12 849 25.07 32 89.6 18 5.2 41.4
12:30 1020 30.12 849 25.07 32.1 89.7 18 4.9 40.9
12:35 1020 30.12 849 25.07 32.5 90.5 16 4.1 39.4
12:40 1020 30.12 849 25.07 32.1 89.7 18 5.1 41.1
12:45 1020 30.12 849 25.07 32.5 90.5 15 3.4 38
12:50 1020 30.12 849 25.07 32.4 90.3 16 3.3 38
12:55 1020 30.12 849 25.07 32.1 89.8 16 3.2 37.8
13:00 1020 30.12 849 25.07 31.7 89.1 15 2.3 36.1
13:05 1020 30.12 849 25.07 32.1 89.8 14 2.1 35.8
13:10 1020 30.12 849 25.07 32.3 90.1 15 2.4 36.4
13:15 1019 30.09 849 25.07 31.2 88.2 16 2.4 36.4
13:20 1019 30.09 849 25.07 30.8 87.4 17 3 37.3
13:25 1019 30.09 849 25.07 31.1 88 18 4.1 39.3
13:30 1019 30.09 849 25.07 31.2 88.2 16 2.9 37.2
13:35 1020 30.12 849 25.07 31 87.7 17 3.8 38.8
13:40 1020 30.12 849 25.07 31 87.7 18 4.2 39.5
13:45 1020 30.12 849 25.07 30.6 87 17 3.5 38.3
13:50 1020 30.12 849 25.07 30.4 86.7 18 3.7 38.6
13:55 1020 30.12 849 25.07 30.3 86.5 18 3.4 38.2
14:00 1020 30.12 849 25.07 30.1 86.2 20 5 40.9
14:05 1020 30.12 849 25.07 29.7 85.5 22 5.8 42.4
14:10 1020 30.12 849 25.07 29.5 85.1 21 5.3 41.5
14:15 1020 30.12 849 25.07 29.1 84.4 23 6.3 43.3
14:20 1020 30.12 849 25.07 28.7 83.6 27 8.2 46.8
14:25 1020 30.12 849 25.07 27.9 82.2 26 6.7 44.1
14:30 1020 30.12 850 25.1 27.2 81 20 2.8 37
14:35 1021 30.15 850 25.1 27.2 81 21 3 37.5
14:40 1021 30.15 850 25.1 27 80.6 19 1.5 34.7
14:45 1021 30.15 850 25.1 26.6 79.9 21 3 37.4
14:50 1021 30.15 850 25.1 26.1 78.9 22 2.8 37.1
14:55 1021 30.15 850 25.1 25.7 78.3 22 2.7 36.9
15:00 1021 30.15 850 25.1 25.5 77.9 23 3.2 37.7
15:05 1021 30.15 850 25.1 25.3 77.6 24 3.3 38
15:10 1021 30.15 850 25.1 25.1 77.1 24 3.5 38.3
15:15 1021 30.15 850 25.1 24.9 76.8 24 3.5 38.2
15:20 1021 30.15 850 25.1 24.8 76.6 25 3.5 38.3
15:25 1021 30.15 851 25.13 24.8 76.6 25 3.9 39
15:30 1021 30.15 850 25.1 24.6 76.3 25 3.3 38
15:35 1021 30.15 850 25.1 25.1 77.1 23 2.6 36.7
15:40 1021 30.15 850 25.1 25.3 77.5 24 3.3 38
15:45 1021 30.15 850 25.1 25.3 77.5 23 3.1 37.6
15:50 1020 30.12 850 25.1 25.5 77.8 22 2.6 36.6
15:55 1020 30.12 850 25.1 25.9 78.5 20 1.5 34.8
16:00 1020 30.12 849 25.07 26 78.7 22 3 37.5
16:05 1020 30.12 849 25.07 25.5 77.8 23 3.1 37.6
16:10 1020 30.12 849 25.07 25.4 77.7 23 2.9 37.2
16:15 1020 30.12 849 25.07 25.6 78.1 22 2.5 36.5
16:20 1020 30.12 849 25.07 25.6 78.1 23 3 37.3
16:25 1020 30.12 849 25.07 25.5 77.8 22 2.7 36.9
16:30 1020 30.12 850 25.1 25.7 78.2 22 2.9 37.2
16:35 1020 30.12 849 25.07 25.5 77.9 24 3.6 38.5
16:40 1020 30.12 849 25.07 25.3 77.5 25 3.9 39.1
16:45 1020 30.12 849 25.07 25 77 26 4.6 40.2
16:50 1020 30.12 849 25.07 24.7 76.4 27 4.4 40
16:55 1020 30.12 850 25.1 24.4 76 27 4.7 40.4
17:00 1021 30.15 850 25.1 24.4 75.9 27 4.5 40
17:05 1021 30.15 850 25.1 24.5 76.1 28 4.8 40.7
17:10 1021 30.15 850 25.1 24.5 76 28 5.1 41.1
17:15 1021 30.15 850 25.1 24.4 75.9 28 4.9 40.9
17:20 1021 30.15 850 25.1 24.4 75.9 29 5.2 41.4
17:25 1021 30.15 850 25.1 24.4 75.9 28 4.8 40.7
17:30 1021 30.15 850 25.1 24.2 75.5 29 5.1 41.1
17:35 1021 30.15 850 25.1 24 75.3 29 5.3 41.6
17:40 1021 30.15 850 25.1 24 75.2 30 5.6 42.1
17:45 1021 30.15 850 25.1 24 75.2 29 5.1 41.3
17:50 1021 30.15 850 25.1 23.8 74.9 30 5.4 41.7
17:55 1021 30.15 850 25.1 23.8 74.8 30 5.3 41.5
18:00 1021 30.15 850 25.1 23.9 75 29 4.9 40.8
18:05 1021 30.15 851 25.13 23.9 75 29 4.9 40.8
18:10 1021 30.15 850 25.1 24.2 75.6 27 4.1 39.4
18:15 1021 30.15 850 25.1 24.4 75.9 26 4.2 39.5
18:20 1021 30.15 850 25.1 24.6 76.3 25 3.5 38.3
18:25 1021 30.15 850 25.1 24.8 76.6 25 3.5 38.3
18:30 1021 30.15 850 25.1 25.2 77.4 22 2.2 36
18:35 1021 30.15 850 25.1 25.9 78.6 20 1.7 35.1
18:40 1021 30.15 850 25.1 26.3 79.4 19 1.3 34.3
18:45 1021 30.15 850 25.1 26.6 79.9 20 1.8 35.2
18:50 1021 30.15 850 25.1 26.6 80 19 1.2 34.1
18:55 1021 30.15 850 25.1 26.7 80 18 1 33.8
19:00 1021 30.15 850 25.1 26.3 79.4 23 4 39.2
19:05 1021 30.15 850 25.1 24.7 76.5 25 3.8 38.8
19:10 1021 30.15 850 25.1 24.8 76.6 24 3.3 37.9
19:15 1021 30.15 850 25.1 24.6 76.3 25 3.5 38.3
19:20 1021 30.15 850 25.1 24.6 76.3 25 3.5 38.3
19:25 1021 30.15 850 25.1 24.5 76.1 26 4 39.2
19:30 1021 30.15 850 25.1 24.2 75.6 25 3.4 38.1
19:35 1021 30.15 850 25.1 24.3 75.8 27 4.5 40.2
19:40 1021 30.15 850 25.1 24.2 75.5 26 3.8 38.9
19:45 1021 30.15 850 25.1 24.2 75.6 26 3.6 38.5
19:50 1021 30.15 850 25.1 24.5 76.1 26 3.8 38.8
19:55 1021 30.15 850 25.1 24.4 75.8 26 3.7 38.6
20:00 1021 30.15 850 25.1 24.2 75.6 27 4.3 39.7
20:05 1021 30.15 850 25.1 24.3 75.7 26 3.6 38.4
20:10 1020 30.12 850 25.1 24.5 76.1 24 3.1 37.6
20:15 1021 30.15 850 25.1 24.6 76.3 25 3.7 38.7
20:20 1021 30.15 850 25.1 24.4 76 26 3.8 38.8
20:25 1021 30.15 850 25.1 24.2 75.5 26 4 39.2
20:30 1021 30.15 850 25.1 24.1 75.4 27 4.2 39.5
20:35 1021 30.15 850 25.1 24 75.1 28 4.4 39.9
20:40 1021 30.15 850 25.1 23.7 74.6 28 4.5 40.1
20:45 1021 30.15 850 25.1 23.4 74.2 30 4.9 40.8
20:50 1021 30.15 850 25.1 23 73.3 31 5.3 41.5
20:55 1021 30.15 850 25.1 22.6 72.6 33 5.7 42.2
21:00 1021 30.15 850 25.1 22.2 72 34 5.8 42.5
21:05 1021 30.15 850 25.1 22.1 71.9 33 5.5 41.9
21:10 1021 30.15 850 25.1 22.4 72.2 33 5.4 41.7
21:15 1021 30.15 850 25.1 22.2 72 33 5.5 41.8
21:20 1021 30.15 850 25.1 22.3 72.1 33 5.3 41.5
21:25 1021 30.15 850 25.1 22.4 72.2 32 5.2 41.4
21:30 1021 30.15 850 25.1 22.4 72.4 31 4.6 40.3
21:35 1021 30.15 850 25.1 22.8 73.1 31 4.8 40.7
21:40 1021 30.15 851 25.13 22.8 73.1 31 4.9 40.7
21:45 1021 30.15 851 25.13 22.8 73 30 4.5 40.1
21:50 1021 30.15 851 25.13 22.9 73.1 29 4.2 39.6
21:55 1021 30.15 851 25.13 23.2 73.7 29 4.2 39.5
22:00 1021 30.15 851 25.13 23.2 73.7 30 5 41.1
22:05 1021 30.15 851 25.13 22.6 72.6 33 5.7 42.2
22:10 1021 30.15 851 25.13 22.3 72.1 33 5.6 42
22:15 1021 30.15 851 25.13 22.3 72.1 33 5.6 42.1
22:20 1021 30.15 851 25.13 22.2 72 32 5.1 41.3
22:25 1021 30.15 851 25.13 22.8 73 30 4.5 40.1
22:30 1021 30.15 851 25.13 23.2 73.8 29 4.5 40
22:35 1021 30.15 850 25.1 23.4 74.1 28 4.2 39.5
22:40 1021 30.15 850 25.1 23.6 74.5 28 4.2 39.5
22:45 1021 30.15 850 25.1 23.9 75 26 3.7 38.7
22:50 1021 30.15 850 25.1 24 75.2 27 4 39.2
22:55 1020 30.12 849 25.07 24 75.3 26 3.6 38.4
23:00 1020 30.12 849 25.07 24.5 76.1 24 2.8 37.1
23:05 1020 30.12 849 25.07 25 76.9 24 3.2 37.7
23:10 1020 30.12 849 25.07 25 76.9 23 2.8 37.1
23:15 1020 30.12 849 25.07 25 77 23 3 37.3
23:20 1020 30.12 849 25.07 25 76.9 24 3.2 37.8
23:25 1020 30.12 849 25.07 24.8 76.6 25 3.5 38.2
23:30 1020 30.12 850 25.1 24.4 76 26 3.7 38.6
23:35 1021 30.15 850 25.1 24 75.3 27 4.4 39.8
23:40 1020 30.12 850 25.1 23.7 74.7 27 4.1 39.4
23:45 1020 30.12 849 25.07 23.6 74.5 27 4 39.1
23:50 1020 30.12 849 25.07 23.6 74.5 27 3.8 38.8
23:55 1019 30.09 849 25.07 23.5 74.4 27 3.7 38.6
24:00 1019 30.09 849 25.07 23.6 74.5 26 3.5 38.2